地図

経路データ

SID SEASON NUMBER BASIN SUBBASIN NAME ISO_TIME NATURE LAT LON WMO_WIND WMO_PRES WMO_AGENCY TRACK_TYPE DIST2LAND LANDFALL IFLAG USA_AGENCY USA_ATCF_ID USA_LAT USA_LON USA_RECORD USA_STATUS USA_WIND USA_PRES USA_SSHS USA_R34_NE USA_R34_SE USA_R34_SW USA_R34_NW USA_R50_NE USA_R50_SE USA_R50_SW USA_R50_NW USA_R64_NE USA_R64_SE USA_R64_SW USA_R64_NW USA_POCI USA_ROCI USA_RMW USA_EYE TOKYO_LAT TOKYO_LON TOKYO_GRADE TOKYO_WIND TOKYO_PRES TOKYO_R50_DIR TOKYO_R50_LONG TOKYO_R50_SHORT TOKYO_R30_DIR TOKYO_R30_LONG TOKYO_R30_SHORT TOKYO_LAND CMA_LAT CMA_LON CMA_CAT CMA_WIND CMA_PRES HKO_LAT HKO_LON HKO_CAT HKO_WIND HKO_PRES NEWDELHI_LAT NEWDELHI_LON NEWDELHI_GRADE NEWDELHI_WIND NEWDELHI_PRES NEWDELHI_CI NEWDELHI_DP NEWDELHI_POCI REUNION_LAT REUNION_LON REUNION_TYPE REUNION_WIND REUNION_PRES REUNION_TNUM REUNION_CI REUNION_RMW REUNION_R34_NE REUNION_R34_SE REUNION_R34_SW REUNION_R34_NW REUNION_R50_NE REUNION_R50_SE REUNION_R50_SW REUNION_R50_NW REUNION_R64_NE REUNION_R64_SE REUNION_R64_SW REUNION_R64_NW BOM_LAT BOM_LON BOM_TYPE BOM_WIND BOM_PRES BOM_TNUM BOM_CI BOM_RMW BOM_R34_NE BOM_R34_SE BOM_R34_SW BOM_R34_NW BOM_R50_NE BOM_R50_SE BOM_R50_SW BOM_R50_NW BOM_R64_NE BOM_R64_SE BOM_R64_SW BOM_R64_NW BOM_ROCI BOM_POCI BOM_EYE BOM_POS_METHOD BOM_PRES_METHOD NADI_LAT NADI_LON NADI_CAT NADI_WIND NADI_PRES WELLINGTON_LAT WELLINGTON_LON WELLINGTON_WIND WELLINGTON_PRES DS824_LAT DS824_LON DS824_STAGE DS824_WIND DS824_PRES TD9636_LAT TD9636_LON TD9636_STAGE TD9636_WIND TD9636_PRES TD9635_LAT TD9635_LON TD9635_WIND TD9635_PRES TD9635_ROCI NEUMANN_LAT NEUMANN_LON NEUMANN_CLASS NEUMANN_WIND NEUMANN_PRES MLC_LAT MLC_LON MLC_CLASS MLC_WIND MLC_PRES USA_GUST BOM_GUST BOM_GUST_PER REUNION_GUST REUNION_GUST_PER USA_SEAHGT USA_SEARAD_NE USA_SEARAD_SE USA_SEARAD_SW USA_SEARAD_NW STORM_SPEED STORM_DIR
1924020S20157 1924 3 SP EA NOT_NAMED 1924-01-19 23:00:00 NR -20.1000 157.000 main 648 639 __________O___ -1 -20.1000 157.000 7 4 0
1924020S20157 1924 3 SP EA NOT_NAMED 1924-01-20 00:00:00 NR -20.1605 157.011 main 639 630 __________P___ -1 -20.1605 157.011 7 4 172
1924020S20157 1924 3 SP EA NOT_NAMED 1924-01-20 03:00:00 NR -20.3412 157.043 main 630 618 __________P___ -1 -20.3412 157.043 7 4 171
1924020S20157 1924 3 SP EA NOT_NAMED 1924-01-20 06:00:00 NR -20.5186 157.071 main 618 601 __________P___ -1 -20.5186 157.071 7 4 173
1924020S20157 1924 3 SP EA NOT_NAMED 1924-01-20 09:00:00 NR -20.6901 157.092 main 601 592 __________P___ -1 -20.6901 157.092 7 3 175
1924020S20157 1924 3 SP EA NOT_NAMED 1924-01-20 11:00:00 NR -20.8000 157.100 main 592 592 __________O___ -1 -20.8000 157.100 7 3 0
1924020S20157 1924 3 SP EA NOT_NAMED 1924-01-20 12:00:00 NR -20.8534 157.102 main 584 575 __________P___ -1 -20.8534 157.102 7 3 173
1924020S20157 1924 3 SP EA NOT_NAMED 1924-01-20 15:00:00 NR -21.0079 157.103 main 575 567 __________P___ -1 -21.0079 157.103 7 3 184
1924020S20157 1924 3 SP EA NOT_NAMED 1924-01-20 18:00:00 NR -21.1566 157.099 main 559 551 __________P___ -1 -21.1566 157.099 7 3 0
1924020S20157 1924 3 SP EA NOT_NAMED 1924-01-20 21:00:00 NR -21.3026 157.097 main 551 543 __________P___ -1 -21.3026 157.097 7 3 176
1924020S20157 1924 3 SP EA NOT_NAMED 1924-01-20 23:00:00 NR -21.4000 157.100 main 543 543 __________O___ -1 -21.4000 157.100 7 3 175
1924020S20157 1924 3 SP EA NOT_NAMED 1924-01-21 00:00:00 NR -21.4500 157.106 main 543 527 __________P___ -1 -21.4500 157.106 7 3 167
1924020S20157 1924 3 SP EA NOT_NAMED 1924-01-21 03:00:00 NR -21.6000 157.131 main 527 520 __________P___ -1 -21.6000 157.131 7 3 171
1924020S20157 1924 3 SP EA NOT_NAMED 1924-01-21 06:00:00 NR -21.7500 157.160 main 520 513 __________P___ -1 -21.7500 157.160 7 3 171
1924020S20157 1924 3 SP EA NOT_NAMED 1924-01-21 09:00:00 NR -21.9000 157.186 main 513 506 __________P___ -1 -21.9000 157.186 7 3 171
1924020S20157 1924 3 SP EA NOT_NAMED 1924-01-21 11:00:00 NR -22.0000 157.200 main 506 506 __________O___ -1 -22.0000 157.200 7 3 179
1924020S20157 1924 3 SP EA NOT_NAMED 1924-01-21 12:00:00 NR -22.0426 157.202 main 506 492 __________P___ -1 -22.0426 157.202 7 3 176
1924020S20157 1924 3 SP EA NOT_NAMED 1924-01-21 15:00:00 NR -22.1674 157.203 main 492 485 __________P___ -1 -22.1674 157.203 7 3 0
1924020S20157 1924 3 SP EA NOT_NAMED 1924-01-21 18:00:00 NR -22.3022 157.199 main 485 472 __________P___ -1 -22.3022 157.199 7 3 183
1924020S20157 1924 3 SP EA NOT_NAMED 1924-01-21 21:00:00 NR -22.4657 157.197 main 472 466 __________P___ -1 -22.4657 157.197 7 4 176
1924020S20157 1924 3 SP EA NOT_NAMED 1924-01-21 23:00:00 NR -22.6000 157.200 main 466 460 __________O___ -1 -22.6000 157.200 7 4 174
1924020S20157 1924 3 SP EA NOT_NAMED 1924-01-22 00:00:00 NR -22.6811 157.205 main 460 449 __________P___ -1 -22.6811 157.205 7 5 178
1924020S20157 1924 3 SP EA NOT_NAMED 1924-01-22 03:00:00 NR -22.9580 157.225 main 444 434 __________P___ -1 -22.9580 157.225 7 6 177
1924020S20157 1924 3 SP EA NOT_NAMED 1924-01-22 06:00:00 NR -23.2683 157.252 main 438 424 __________P___ -1 -23.2683 157.252 7 6 175
1924020S20157 1924 3 SP EA NOT_NAMED 1924-01-22 09:00:00 NR -23.5900 157.281 main 424 416 __________P___ -1 -23.5900 157.281 7 6 175
1924020S20157 1924 3 SP EA NOT_NAMED 1924-01-22 11:00:00 NR -23.8000 157.300 main 416 413 __________O___ -1 -23.8000 157.300 7 6 178
1924020S20157 1924 3 SP EA NOT_NAMED 1924-01-22 12:00:00 NR -23.8962 157.306 main 413 404 __________P___ -1 -23.8962 157.306 7 6 0
1924020S20157 1924 3 SP EA NOT_NAMED 1924-01-22 15:00:00 NR -24.1800 157.323 main 404 399 __________P___ -1 -24.1800 157.323 7 6 177
1924020S20157 1924 3 SP EA NOT_NAMED 1924-01-22 18:00:00 NR -24.4562 157.343 main 397 397 __________P___ -1 -24.4562 157.343 7 5 175
1924020S20157 1924 3 SP EA NOT_NAMED 1924-01-22 21:00:00 NR -24.7250 157.372 main 404 403 __________P___ -1 -24.7250 157.372 7 5 172
1924020S20157 1924 3 SP EA NOT_NAMED 1924-01-22 23:00:00 NR -24.9000 157.400 main 403 402 __________O___ -1 -24.9000 157.400 7 5 172
1924020S20157 1924 3 SP EA NOT_NAMED 1924-01-23 00:00:00 NR -24.9879 157.418 main 402 402 __________P___ -1 -24.9879 157.418 7 5 167
1924020S20157 1924 3 SP EA NOT_NAMED 1924-01-23 03:00:00 NR -25.2467 157.484 main 413 413 __________P___ -1 -25.2467 157.484 7 5 166
1924020S20157 1924 3 SP EA NOT_NAMED 1924-01-23 06:00:00 NR -25.4979 157.562 main 425 425 __________P___ -1 -25.4979 157.562 7 5 164
1924020S20157 1924 3 SP EA NOT_NAMED 1924-01-23 09:00:00 NR -25.7417 157.645 main 428 428 __________P___ -1 -25.7417 157.645 7 5 163
1924020S20157 1924 3 SP EA NOT_NAMED 1924-01-23 11:00:00 NR -25.9000 157.700 main 442 442 __________O___ -1 -25.9000 157.700 7 5 162
1924020S20157 1924 3 SP EA NOT_NAMED 1924-01-23 12:00:00 NR -25.9709 157.719 main 445 445 __________P___ -1 -25.9709 157.719 7 4 167
1924020S20157 1924 3 SP EA NOT_NAMED 1924-01-23 15:00:00 NR -26.1752 157.774 main 460 460 __________P___ -1 -26.1752 157.774 7 4 166
1924020S20157 1924 3 SP EA NOT_NAMED 1924-01-23 18:00:00 NR -26.3836 157.836 main 460 460 __________P___ -1 -26.3836 157.836 7 5 164
1924020S20157 1924 3 SP EA NOT_NAMED 1924-01-23 21:00:00 NR -26.6182 157.922 main 460 455 __________P___ -1 -26.6182 157.922 7 5 160
1924020S20157 1924 3 SP EA NOT_NAMED 1924-01-23 23:00:00 NR -26.8000 158.000 main 460 456 __________O___ -1 -26.8000 158.000 7 6 159
1924020S20157 1924 3 SP EA NOT_NAMED 1924-01-24 00:00:00 NR -26.9061 158.044 main 456 456 __________P___ -1 -26.9061 158.044 7 7 159
1924020S20157 1924 3 SP EA NOT_NAMED 1924-01-24 03:00:00 NR -27.2579 158.200 main 463 460 __________P___ -1 -27.2579 158.200 7 8 157
1924020S20157 1924 3 SP EA NOT_NAMED 1924-01-24 06:00:00 NR -27.6430 158.394 main 475 474 __________P___ -1 -27.6430 158.394 7 9 154
1924020S20157 1924 3 SP EA NOT_NAMED 1924-01-24 09:00:00 NR -28.0398 158.625 main 490 489 __________P___ -1 -28.0398 158.625 7 9 151
1924020S20157 1924 3 SP EA NOT_NAMED 1924-01-24 11:00:00 NR -28.3000 158.800 main 508 507 __________O___ -1 -28.3000 158.800 7 9 148
1924020S20157 1924 3 SP EA NOT_NAMED 1924-01-24 12:00:00 NR -28.4266 158.893 main 517 517 __________P___ -1 -28.4266 158.893 7 9 145
1924020S20157 1924 3 SP EA NOT_NAMED 1924-01-24 15:00:00 NR -28.7920 159.195 main 544 544 __________P___ -1 -28.7920 159.195 7 9 142
1924020S20157 1924 3 SP EA NOT_NAMED 1924-01-24 18:00:00 NR -29.1405 159.522 main 573 573 __________P___ -1 -29.1405 159.522 7 9 140
1924020S20157 1924 3 SP EA NOT_NAMED 1924-01-24 21:00:00 NR -29.4781 159.866 main 614 614 __________P___ -1 -29.4781 159.866 7 9 138
1924020S20157 1924 3 SP MM NOT_NAMED 1924-01-24 23:00:00 NR -29.7000 160.100 main 635 __________O___ -1 -29.7000 160.100 7 9 138

デジタル台風データ・検索

IBTrACS Databaseについて

本データベースは、米国NOAAが公開する1842年以降の世界の熱帯低気圧のベストトラックデータアーカイブInternational Best Track Archive for Climate Stewardship (IBTrACS)を、ウェブで閲覧しやすい形式に変換したものです。

最終更新日:2021-12-03